Time;durP1;ratioP1;P1;durP2;ratioP2;P2;SDS_P1;SDS_P2;PMS_P1;PMS_P2;Temp;Humidity;BMP_temperature;BMP_pressure;BME280_temperature;BME280_humidity;BME280_pressure;Samples;Min_cycle;Max_cycle;Signal;HPM_P1;HPM_P2
2022/12/28 00:01:27;;;;;;;11.63;7.72;;;230.70;2252.80;;;;;;4900802;29;20142;-82
2022/12/28 00:03:53;;;;;;;14.73;10.50;;;230.70;2252.80;;;;;;4918003;29;20107;-80
2022/12/28 00:06:22;;;;;;;14.70;11.40;;;230.70;2252.80;;;;;;4900928;29;20040;-80
2022/12/28 00:08:47;;;;;;;23.45;13.98;;;230.70;2252.80;;;;;;4900939;29;20056;-82
2022/12/28 00:11:16;;;;;;;18.35;13.07;;;230.70;2252.80;;;;;;4900802;29;20414;-87
2022/12/28 00:13:42;;;;;;;25.10;14.77;;;230.70;2252.80;;;;;;4900809;29;20032;-81
2022/12/28 00:16:29;;;;;;;41.10;23.65;;;230.60;2252.80;;;;;;4916426;29;20039;-82
2022/12/28 00:18:57;;;;;;;48.67;28.15;;;230.60;2252.80;;;;;;4917586;29;20103;-83
2022/12/28 00:21:23;;;;;;;49.50;29.00;;;230.70;2252.80;;;;;;4900648;29;20032;-82
2022/12/28 00:23:54;;;;;;;46.35;28.20;;;230.70;2252.80;;;;;;4900990;29;20472;-79
2022/12/28 00:26:20;;;;;;;44.95;27.00;;;230.70;2252.80;;;;;;4917365;29;20461;-83
2022/12/28 00:28:46;;;;;;;44.60;26.25;;;230.60;2252.80;;;;;;4917263;29;20024;-82
2022/12/28 00:31:13;;;;;;;48.95;28.13;;;205.70;2252.80;;;;;;4900317;29;20083;-85
2022/12/28 00:33:38;;;;;;;44.30;25.30;;;230.60;2252.80;;;;;;4900515;29;20032;-83
2022/12/28 00:36:05;;;;;;;38.08;21.88;;;230.60;2252.80;;;;;;4899922;29;20523;-81
2022/12/28 00:38:36;;;;;;;26.77;17.65;;;230.70;2252.80;;;;;;4899983;29;20100;-85
2022/12/28 00:41:02;;;;;;;39.53;23.65;;;230.60;2252.80;;;;;;4898272;29;20024;-85
2022/12/28 00:43:27;;;;;;;39.30;25.45;;;230.60;2252.80;;;;;;4899581;29;20044;-82
2022/12/28 00:45:53;;;;;;;36.10;25.75;;;230.60;2252.80;;;;;;4899687;29;20028;-83
2022/12/28 00:48:19;;;;;;;57.50;34.42;;;230.60;2252.80;;;;;;4899371;29;20032;-85
2022/12/28 00:50:45;;;;;;;58.08;33.97;;;230.50;2252.80;;;;;;4900813;29;20061;-86
2022/12/28 00:53:11;;;;;;;52.85;34.10;;;230.40;2252.80;;;;;;4900662;29;20035;-85
2022/12/28 00:55:38;;;;;;;57.63;35.10;;;230.40;2252.80;;;;;;4899583;29;20064;-85
2022/12/28 00:58:04;;;;;;;64.53;37.33;;;230.40;2252.80;;;;;;4914929;29;20032;-82
2022/12/28 01:00:30;;;;;;;76.90;40.85;;;230.40;2252.80;;;;;;4899729;29;20052;-84
2022/12/28 01:02:56;;;;;;;59.50;34.58;;;205.70;2252.80;;;;;;4899750;29;20028;-83
2022/12/28 01:05:22;;;;;;;55.17;33.75;;;205.70;2252.80;;;;;;4900461;29;20460;-80
2022/12/28 01:07:49;;;;;;;53.17;30.02;;;205.60;2252.80;;;;;;4900717;29;20043;-84
2022/12/28 01:10:15;;;;;;;49.17;28.45;;;205.50;2252.80;;;;;;4899689;29;20483;-84
2022/12/28 01:12:41;;;;;;;47.38;27.42;;;205.40;2252.80;;;;;;4899524;29;20033;-86
2022/12/28 01:15:12;;;;;;;57.97;35.88;;;205.40;2252.80;;;;;;4900631;29;20586;-85
2022/12/28 01:17:39;;;;;;;58.97;36.38;;;205.40;2252.80;;;;;;4900280;29;20037;-87
2022/12/28 01:20:05;;;;;;;62.35;38.88;;;205.40;2252.80;;;;;;4900515;29;20126;-84
2022/12/28 01:22:31;;;;;;;73.43;46.25;;;205.40;2252.80;;;;;;4900117;29;20036;-86
2022/12/28 01:24:58;;;;;;;84.28;48.25;;;205.40;2252.80;;;;;;4915346;29;20038;-82
2022/12/28 01:27:24;;;;;;;100.85;53.90;;;205.40;2252.80;;;;;;4916162;29;20032;-85
2022/12/28 01:29:50;;;;;;;137.50;66.78;;;205.40;2252.80;;;;;;4933767;29;20488;-85
2022/12/28 01:32:15;;;;;;;86.25;49.35;;;205.30;2252.80;;;;;;4936424;29;20051;-88
2022/12/28 01:34:41;;;;;;;88.40;51.90;;;205.30;2252.80;;;;;;4935327;29;20079;-87
2022/12/28 01:37:07;;;;;;;73.20;46.92;;;205.20;2252.80;;;;;;4934407;29;20032;-87
2022/12/28 01:39:32;;;;;;;77.63;49.58;;;205.20;2252.80;;;;;;4959416;28;20112;-85
2022/12/28 01:42:00;;;;;;;73.68;46.83;;;205.20;2252.80;;;;;;4940354;28;20560;-87
2022/12/28 01:44:25;;;;;;;77.38;44.83;;;205.20;2252.80;;;;;;4935250;29;20034;-85
2022/12/28 01:47:01;;;;;;;83.18;49.85;;;205.20;2252.80;;;;;;4935051;29;20118;-85
2022/12/28 01:49:41;;;;;;;70.63;45.78;;;205.20;2252.80;;;;;;4934989;29;20028;-88
2022/12/28 01:52:22;;;;;;;83.07;49.03;;;205.10;2252.80;;;;;;4935031;29;20122;-86
2022/12/28 01:54:52;;;;;;;82.50;48.92;;;205.20;2252.80;;;;;;4935141;29;20468;-87
2022/12/28 01:57:20;;;;;;;81.30;49.67;;;205.20;2252.80;;;;;;4937936;29;20059;-87
2022/12/28 01:59:53;;;;;;;80.90;48.83;;;205.20;2252.80;;;;;;4938394;29;20139;-86
2022/12/28 02:02:20;;;;;;;72.30;45.80;;;205.20;2252.80;;;;;;4938642;29;20123;-87
2022/12/28 02:04:47;;;;;;;64.35;41.75;;;205.20;2252.80;;;;;;4938129;29;20119;-86
2022/12/28 02:07:20;;;;;;;69.32;41.65;;;205.20;2252.80;;;;;;4939142;29;20032;-87
2022/12/28 02:09:46;;;;;;;74.53;45.95;;;205.20;2252.80;;;;;;4938488;29;20023;-88
2022/12/28 02:12:15;;;;;;;74.75;47.42;;;205.20;2252.80;;;;;;4938058;29;20031;-86
2022/12/28 02:14:43;;;;;;;83.90;51.13;;;205.20;2252.80;;;;;;4922203;29;20473;-86
2022/12/28 02:17:10;;;;;;;92.95;55.55;;;205.20;2252.80;;;;;;4902609;29;20122;-88
2022/12/28 02:19:44;;;;;;;91.35;56.30;;;205.10;2252.80;;;;;;4901794;29;20631;-87
2022/12/28 02:22:29;;;;;;;94.95;57.90;;;205.10;2252.80;;;;;;4902437;29;20536;-86
2022/12/28 02:25:12;;;;;;;90.35;57.85;;;205.10;2252.80;;;;;;4903488;29;20028;-87
2022/12/28 02:28:01;;;;;;;81.70;54.17;;;205.10;2252.80;;;;;;4902777;29;20038;-87
2022/12/28 02:30:33;;;;;;;94.00;54.22;;;205.10;2252.80;;;;;;4868352;29;20040;-86
2022/12/28 02:33:11;;;;;;;79.35;51.00;;;205.10;2252.80;;;;;;4902399;29;20032;-87
2022/12/28 02:35:48;;;;;;;65.53;45.30;;;205.10;2252.80;;;;;;4908450;29;20480;-88
2022/12/28 02:38:30;;;;;;;52.10;33.95;;;205.00;2252.80;;;;;;4921852;29;20042;-87
2022/12/28 02:41:02;;;;;;;38.08;26.80;;;205.00;2252.80;;;;;;4921083;29;20417;-87
2022/12/28 02:43:28;;;;;;;37.05;24.88;;;205.00;2252.80;;;;;;4922140;29;20082;-87
2022/12/28 02:52:04;;;;;;;25.35;13.88;;;205.00;2252.80;;;;;;4938889;29;20031;-87
2022/12/28 02:57:52;;;;;;;47.65;29.40;;;205.10;2252.80;;;;;;4938422;29;20098;-86
2022/12/28 03:00:19;;;;;;;51.75;32.28;;;205.00;2252.80;;;;;;4921517;29;20051;-83
2022/12/28 03:03:06;;;;;;;57.88;36.15;;;205.00;2252.80;;;;;;4921468;29;20027;-87
2022/12/28 03:08:33;;;;;;;45.33;25.55;;;205.00;2252.80;;;;;;4937682;29;20038;-84
2022/12/28 03:11:08;;;;;;;30.63;18.60;;;204.90;2252.80;;;;;;4921464;29;20027;-86
2022/12/28 03:13:42;;;;;;;30.40;17.50;;;205.00;2252.80;;;;;;4921428;29;20063;-85
2022/12/28 03:16:23;;;;;;;31.75;15.73;;;204.90;2252.80;;;;;;4921046;29;20034;-86
2022/12/28 03:32:54;;;;;;;16.10;10.55;;;204.80;2252.80;;;;;;4937979;29;20034;-84
2022/12/28 03:35:25;;;;;;;17.58;12.73;;;204.80;2252.80;;;;;;4921029;29;20028;-83
2022/12/28 03:38:02;;;;;;;21.33;14.05;;;180.10;2252.80;;;;;;4920198;29;20392;-85
2022/12/28 03:41:01;;;;;;;20.25;13.20;;;180.10;2252.80;;;;;;4920594;29;20031;-85
2022/12/28 03:43:53;;;;;;;19.08;12.73;;;180.10;2252.80;;;;;;4920664;29;20054;-85
2022/12/28 03:46:46;;;;;;;28.33;12.93;;;180.10;2252.80;;;;;;4920129;29;20043;-88
2022/12/28 03:49:12;;;;;;;16.17;11.60;;;180.10;2252.80;;;;;;4920747;29;20036;-84
2022/12/28 03:51:39;;;;;;;17.00;11.55;;;180.10;2252.80;;;;;;4914649;29;20032;-86
2022/12/28 03:54:05;;;;;;;17.30;11.85;;;180.10;2252.80;;;;;;4918328;29;20056;-85
2022/12/28 03:56:30;;;;;;;22.58;13.65;;;180.10;2252.80;;;;;;4900975;29;20078;-88
2022/12/28 03:58:57;;;;;;;19.52;12.77;;;180.10;2252.80;;;;;;4901839;29;20024;-80
2022/12/28 04:01:23;;;;;;;19.75;13.77;;;180.10;2252.80;;;;;;4919523;29;20056;-80
2022/12/28 04:03:49;;;;;;;17.95;13.15;;;180.10;2252.80;;;;;;4922011;29;20171;-81
2022/12/28 04:06:17;;;;;;;19.95;13.00;;;204.80;2252.80;;;;;;4920666;29;20118;-88
2022/12/28 04:08:44;;;;;;;17.60;12.55;;;204.80;2252.80;;;;;;4920531;29;20027;-87
2022/12/28 04:11:10;;;;;;;17.13;10.93;;;204.80;2252.80;;;;;;4937234;29;20028;-84
2022/12/28 04:13:36;;;;;;;23.38;15.02;;;204.80;2252.80;;;;;;4926302;29;20078;-85
2022/12/28 04:16:08;;;;;;;21.25;14.10;;;180.10;2252.80;;;;;;4939333;29;20463;-86
2022/12/28 04:18:34;;;;;;;25.75;17.27;;;180.10;2252.80;;;;;;4937801;28;20033;-86
2022/12/28 04:21:00;;;;;;;32.85;21.08;;;180.10;2252.80;;;;;;4938573;29;20121;-84
2022/12/28 04:23:26;;;;;;;23.88;16.08;;;180.10;2252.80;;;;;;4938957;29;20415;-86
2022/12/28 04:25:57;;;;;;;27.33;18.23;;;180.10;2252.80;;;;;;4938961;29;20027;-85
2022/12/28 04:28:23;;;;;;;29.10;18.83;;;180.00;2252.80;;;;;;4939225;29;20058;-86
2022/12/28 04:30:49;;;;;;;31.73;20.77;;;204.80;2252.80;;;;;;4939155;29;20038;-87
2022/12/28 04:33:15;;;;;;;31.98;21.13;;;180.10;2252.80;;;;;;4938524;29;20023;-85
2022/12/28 04:35:40;;;;;;;24.83;17.40;;;180.10;2252.80;;;;;;4938349;29;20388;-83
2022/12/28 04:38:06;;;;;;;21.17;14.57;;;180.10;2252.80;;;;;;4937843;29;20042;-85
2022/12/28 04:40:32;;;;;;;28.75;17.95;;;180.00;2252.80;;;;;;4937474;29;20027;-86
2022/12/28 04:42:58;;;;;;;27.75;19.02;;;180.10;2252.80;;;;;;4956283;28;20090;-84
2022/12/28 04:45:24;;;;;;;36.85;23.13;;;180.00;2252.80;;;;;;4950512;28;20031;-86
2022/12/28 04:47:50;;;;;;;30.42;18.40;;;180.10;2252.80;;;;;;4938190;29;20042;-86
2022/12/28 04:50:16;;;;;;;25.55;16.63;;;180.10;2252.80;;;;;;4938894;29;20481;-86
2022/12/28 04:52:41;;;;;;;28.98;18.48;;;180.10;2252.80;;;;;;4938687;29;20066;-87
2022/12/28 04:55:07;;;;;;;32.78;19.95;;;180.10;2252.80;;;;;;4938736;29;20531;-86
2022/12/28 04:57:33;;;;;;;37.45;23.45;;;180.10;2252.80;;;;;;4938500;29;20074;-84
2022/12/28 04:59:59;;;;;;;35.17;20.80;;;180.10;2252.80;;;;;;4935138;29;20067;-84
2022/12/28 05:02:25;;;;;;;33.20;22.45;;;180.10;2252.80;;;;;;4935760;29;20028;-87
2022/12/28 05:04:50;;;;;;;40.50;23.42;;;180.10;2252.80;;;;;;4935561;29;20032;-83
2022/12/28 05:07:16;;;;;;;32.60;21.80;;;180.00;2252.80;;;;;;4932625;29;20107;-87
2022/12/28 05:09:42;;;;;;;34.20;21.48;;;180.00;2252.80;;;;;;4934534;29;20032;-86
2022/12/28 05:12:07;;;;;;;31.75;21.42;;;180.00;2252.80;;;;;;4934095;29;20035;-85
2022/12/28 05:14:33;;;;;;;40.78;25.27;;;180.00;2252.80;;;;;;4935019;29;20070;-84
2022/12/28 05:16:59;;;;;;;69.70;40.65;;;180.00;2252.80;;;;;;4935212;29;20091;-84
2022/12/28 05:19:24;;;;;;;95.70;52.33;;;179.90;2252.80;;;;;;4934960;29;20480;-87
2022/12/28 05:21:50;;;;;;;56.20;34.33;;;179.90;2252.80;;;;;;4933571;29;20039;-86
2022/12/28 05:24:16;;;;;;;58.13;35.33;;;179.70;2252.80;;;;;;4918641;29;20039;-87
2022/12/28 05:26:41;;;;;;;54.45;32.47;;;179.60;2252.80;;;;;;4915274;29;20036;-85
2022/12/28 05:29:07;;;;;;;58.58;35.08;;;179.60;2252.80;;;;;;4915458;29;20065;-86
2022/12/28 05:31:33;;;;;;;66.88;44.25;;;;;;;;;;4919988;29;20035;-84
2022/12/28 05:33:59;;;;;;;113.47;64.32;;;;;;;;;;4938019;29;20031;-86
2022/12/28 05:36:26;;;;;;;70.03;45.60;;;;;;;;;;4937845;29;20102;-85
2022/12/28 05:38:53;;;;;;;65.40;44.90;;;;;;;;;;4937258;29;20024;-81
2022/12/28 05:41:19;;;;;;;64.28;42.72;;;;;;;;;;4938468;29;20045;-84
2022/12/28 05:43:45;;;;;;;62.65;40.03;;;;;;;;;;4936513;29;20032;-86
2022/12/28 05:46:13;;;;;;;64.82;37.92;;;;;;;;;;4919754;29;20075;-85
2022/12/28 05:48:40;;;;;;;67.53;46.25;;;;;;;;;;4918961;29;20072;-85
2022/12/28 05:51:07;;;;;;;88.18;61.17;;;;;;;;;;4919543;29;20031;-84
2022/12/28 05:53:34;;;;;;;92.30;62.05;;;;;;;;;;4919760;29;20024;-86
2022/12/28 05:56:01;;;;;;;132.38;80.85;;;180.10;2252.80;;;;;;4919254;29;20021;-85
2022/12/28 05:58:27;;;;;;;159.75;96.97;;;179.90;2252.80;;;;;;4919673;29;20087;-88
2022/12/28 06:00:53;;;;;;;196.73;112.53;;;179.90;2252.80;;;;;;4922566;29;20146;-87
2022/12/28 06:03:18;;;;;;;166.25;95.82;;;179.80;2252.80;;;;;;4922147;29;20207;-87
2022/12/28 06:05:44;;;;;;;121.13;77.70;;;179.90;2252.80;;;;;;4922006;29;20028;-86
2022/12/28 06:08:10;;;;;;;129.93;77.47;;;179.90;2252.80;;;;;;4922531;29;20036;-87
2022/12/28 06:10:35;;;;;;;119.90;72.20;;;179.80;2252.80;;;;;;4922113;29;20131;-86
2022/12/28 06:13:01;;;;;;;90.90;56.63;;;179.90;2252.80;;;;;;4922423;29;20024;-84
2022/12/28 06:15:27;;;;;;;95.40;52.75;;;179.90;2252.80;;;;;;4921950;29;20486;-86
2022/12/28 06:17:53;;;;;;;92.90;56.97;;;179.80;2252.80;;;;;;4921838;29;20046;-86
2022/12/28 06:20:18;;;;;;;100.18;58.78;;;179.80;2252.80;;;;;;4922483;29;20124;-85
2022/12/28 06:22:44;;;;;;;137.80;83.18;;;179.90;2252.80;;;;;;4922362;29;20050;-85
2022/12/28 06:25:10;;;;;;;131.77;80.88;;;179.90;2252.80;;;;;;4922147;29;20134;-85
2022/12/28 06:27:35;;;;;;;197.40;115.60;;;179.90;2252.80;;;;;;4921882;29;20031;-85
2022/12/28 06:30:01;;;;;;;134.50;87.88;;;179.80;2252.80;;;;;;4921806;29;20074;-87
2022/12/28 06:32:27;;;;;;;83.97;54.03;;;179.80;2252.80;;;;;;4921961;29;20042;-88
2022/12/28 06:34:53;;;;;;;79.75;48.95;;;179.90;2252.80;;;;;;4921894;29;20031;-86
2022/12/28 06:37:18;;;;;;;45.63;27.40;;;179.90;2252.80;;;;;;4921784;29;20126;-87
2022/12/28 06:39:44;;;;;;;55.78;29.95;;;179.90;2252.80;;;;;;4921092;29;20514;-86
2022/12/28 06:42:10;;;;;;;37.42;19.85;;;179.90;2252.80;;;;;;4920938;29;20375;-87
2022/12/28 06:44:36;;;;;;;36.42;21.00;;;179.70;2252.80;;;;;;4921544;29;20053;-86
2022/12/28 06:47:01;;;;;;;20.48;12.57;;;179.70;2252.80;;;;;;4921890;29;20091;-87
2022/12/28 06:49:27;;;;;;;25.15;13.38;;;179.60;2252.80;;;;;;4921891;29;20027;-85
2022/12/28 06:51:53;;;;;;;29.90;15.50;;;179.40;2252.80;;;;;;4921454;29;20051;-86
2022/12/28 06:54:19;;;;;;;24.58;13.85;;;179.40;2252.80;;;;;;4921816;29;20070;-87
2022/12/28 06:56:45;;;;;;;25.50;14.90;;;179.30;2252.80;;;;;;4921430;29;20058;-86
2022/12/28 06:59:10;;;;;;;22.50;11.32;;;179.20;2252.80;;;;;;4921729;29;20035;-86
2022/12/28 07:01:38;;;;;;;13.23;7.78;;;179.20;2252.80;;;;;;4918771;29;20052;-89
2022/12/28 07:04:06;;;;;;;11.73;7.88;;;154.50;2252.80;;;;;;4918466;29;20457;-86
2022/12/28 07:06:36;;;;;;;15.45;7.32;;;154.40;2252.80;;;;;;4918217;29;20032;-87
2022/12/28 07:09:02;;;;;;;15.63;9.15;;;;;;;;;;4918424;29;20028;-85
2022/12/28 07:11:28;;;;;;;13.98;9.50;;;154.50;2252.80;;;;;;4918428;29;20024;-86
2022/12/28 07:13:55;;;;;;;24.00;14.13;;;154.40;2252.80;;;;;;4919269;29;20032;-87
2022/12/28 07:16:22;;;;;;;24.05;16.35;;;154.40;2252.80;;;;;;4918243;29;20111;-83
2022/12/28 07:18:49;;;;;;;23.35;15.50;;;154.50;2252.80;;;;;;4916943;29;20077;-86
2022/12/28 07:21:26;;;;;;;28.20;15.90;;;154.50;2252.80;;;;;;4917018;29;20477;-87
2022/12/28 07:23:53;;;;;;;27.00;16.35;;;179.20;2252.80;;;;;;4918152;29;20087;-87
2022/12/28 07:26:26;;;;;;;14.82;10.25;;;179.30;2252.80;;;;;;4917418;29;20040;-87
2022/12/28 07:28:53;;;;;;;17.27;10.57;;;179.30;2252.80;;;;;;4917853;29;20115;-88
2022/12/28 07:31:25;;;;;;;26.40;17.45;;;179.30;2252.80;;;;;;4917920;29;20039;-88
2022/12/28 07:33:54;;;;;;;27.48;17.33;;;179.30;2252.80;;;;;;4917568;29;20461;-85
2022/12/28 07:36:20;;;;;;;41.80;25.17;;;179.40;2252.80;;;;;;4917504;29;20044;-87
2022/12/28 07:38:47;;;;;;;60.42;38.58;;;179.40;2252.80;;;;;;4917673;29;20354;-86
2022/12/28 07:41:15;;;;;;;41.50;29.30;;;179.40;2252.80;;;;;;4917398;29;20461;-85
2022/12/28 07:43:41;;;;;;;27.92;18.65;;;179.40;2252.80;;;;;;4917029;29;20075;-86
2022/12/28 07:46:13;;;;;;;35.25;21.48;;;179.40;2252.80;;;;;;4917802;29;20123;-87
2022/12/28 07:48:39;;;;;;;53.97;30.05;;;179.50;2252.80;;;;;;4920946;29;20047;-87
2022/12/28 07:51:12;;;;;;;58.88;29.08;;;179.60;2252.80;;;;;;4940581;29;20039;-87
2022/12/28 07:53:40;;;;;;;49.90;27.38;;;179.70;2252.80;;;;;;4917696;29;20028;-87
2022/12/28 07:56:06;;;;;;;56.72;30.80;;;179.80;2252.80;;;;;;4917582;29;20020;-86
2022/12/28 07:58:33;;;;;;;35.72;23.42;;;179.80;2252.80;;;;;;4917554;29;20039;-86
2022/12/28 08:01:11;;;;;;;41.55;26.17;;;179.90;2252.80;;;;;;4917240;29;20060;-86
2022/12/28 08:03:37;;;;;;;40.72;27.52;;;179.80;2252.80;;;;;;4917138;29;20040;-87
2022/12/28 08:06:12;;;;;;;43.33;29.08;;;179.80;2252.80;;;;;;4917780;29;20079;-87
2022/12/28 08:08:42;;;;;;;46.05;30.73;;;179.90;2252.80;;;;;;4917252;29;20469;-89
2022/12/28 08:11:11;;;;;;;35.83;23.75;;;179.80;2252.80;;;;;;4917409;29;20032;-88
2022/12/28 08:13:39;;;;;;;32.65;20.40;;;179.90;2252.80;;;;;;4916686;29;20029;-85
2022/12/28 08:16:06;;;;;;;24.83;15.75;;;180.00;2252.80;;;;;;4933304;29;20431;-85
2022/12/28 08:18:32;;;;;;;23.58;15.15;;;180.00;2252.80;;;;;;4935503;29;20059;-84
2022/12/28 08:21:04;;;;;;;25.63;15.48;;;180.00;2252.80;;;;;;4934747;29;20051;-87
2022/12/28 08:23:31;;;;;;;25.38;16.60;;;180.10;2252.80;;;;;;4936337;29;20484;-86
2022/12/28 08:26:07;;;;;;;33.33;19.88;;;180.10;2252.80;;;;;;4936725;29;20489;-83
2022/12/28 08:28:34;;;;;;;24.70;14.40;;;180.10;2252.80;;;;;;4936930;29;20082;-79
2022/12/28 08:31:21;;;;;;;21.13;15.60;;;204.80;2252.80;;;;;;4938453;29;20028;-79
2022/12/28 08:33:47;;;;;;;20.77;14.23;;;204.90;2252.80;;;;;;4937677;29;20087;-81
2022/12/28 08:36:13;;;;;;;28.27;18.08;;;204.90;2252.80;;;;;;4935824;29;20032;-86
2022/12/28 08:38:40;;;;;;;27.83;18.35;;;205.10;2252.80;;;;;;4936158;29;20034;-86
2022/12/28 08:41:09;;;;;;;25.83;14.35;;;205.10;2252.80;;;;;;4935970;29;20091;-84
2022/12/28 08:43:35;;;;;;;21.38;13.10;;;205.20;2252.80;;;;;;4935224;29;20028;-87
2022/12/28 08:46:02;;;;;;;25.13;15.00;;;205.30;2252.80;;;;;;4935313;29;20023;-84
2022/12/28 08:48:29;;;;;;;46.53;26.35;;;205.20;2252.80;;;;;;4935585;29;20130;-86
2022/12/28 08:50:59;;;;;;;45.00;29.05;;;205.30;2252.80;;;;;;4935419;29;20032;-88
2022/12/28 08:53:25;;;;;;;46.08;33.03;;;205.30;2252.80;;;;;;4935790;29;20031;-87
2022/12/28 08:55:51;;;;;;;44.95;33.22;;;205.40;2252.80;;;;;;4935686;29;20028;-85
2022/12/28 08:58:17;;;;;;;48.33;31.00;;;205.40;2252.80;;;;;;4935263;29;20050;-88
2022/12/28 09:00:43;;;;;;;51.88;36.55;;;205.40;2252.80;;;;;;4938932;29;20078;-88
2022/12/28 09:03:08;;;;;;;48.85;34.90;;;205.40;2252.80;;;;;;4938694;29;20075;-86
2022/12/28 09:05:40;;;;;;;42.80;30.73;;;205.40;2252.80;;;;;;4940353;29;20038;-86
2022/12/28 09:08:06;;;;;;;64.63;36.92;;;205.50;2252.80;;;;;;4945318;29;20038;-84
2022/12/28 09:10:32;;;;;;;34.50;22.00;;;205.50;2252.80;;;;;;4945123;29;20027;-88
2022/12/28 09:12:57;;;;;;;37.45;22.85;;;205.50;2252.80;;;;;;4943868;29;20118;-86
2022/12/28 09:15:23;;;;;;;41.20;25.25;;;205.50;2252.80;;;;;;4944522;29;20126;-87
2022/12/28 09:17:49;;;;;;;76.75;41.65;;;205.50;2252.80;;;;;;4945017;29;20483;-87
2022/12/28 09:20:15;;;;;;;50.13;29.67;;;205.60;2252.80;;;;;;4944160;29;20479;-86
2022/12/28 09:22:40;;;;;;;68.13;38.85;;;205.60;2252.80;;;;;;4944748;29;20052;-88
2022/12/28 09:25:06;;;;;;;26.33;17.73;;;205.70;2252.80;;;;;;4945303;29;20102;-88
2022/12/28 09:27:32;;;;;;;27.00;16.38;;;205.60;2252.80;;;;;;4944618;29;20386;-87
2022/12/28 09:29:58;;;;;;;30.48;19.77;;;205.60;2252.80;;;;;;4944875;29;20119;-87
2022/12/28 09:32:24;;;;;;;51.58;27.45;;;205.60;2252.80;;;;;;4944731;28;20519;-86
2022/12/28 09:34:51;;;;;;;19.40;11.20;;;205.60;2252.80;;;;;;4943804;28;20030;-88
2022/12/28 09:37:16;;;;;;;12.63;8.70;;;205.50;2252.80;;;;;;4944907;29;20098;-87
2022/12/28 09:39:42;;;;;;;15.55;8.73;;;205.50;2252.80;;;;;;4943568;29;20464;-87
2022/12/28 09:42:22;;;;;;;26.60;14.63;;;205.50;2252.80;;;;;;4944425;29;20032;-87
2022/12/28 09:44:52;;;;;;;66.97;37.28;;;205.50;2252.80;;;;;;4944746;29;20046;-87
2022/12/28 09:47:51;;;;;;;59.85;36.28;;;205.60;2252.80;;;;;;4940706;29;20036;-86
2022/12/28 09:50:20;;;;;;;142.25;78.93;;;205.60;2252.80;;;;;;4944538;29;20034;-83
2022/12/28 09:53:14;;;;;;;59.03;33.55;;;205.60;2252.80;;;;;;4944010;29;20042;-85
2022/12/28 09:55:43;;;;;;;36.63;22.27;;;205.70;2252.80;;;;;;4944182;29;20031;-82
2022/12/28 09:58:15;;;;;;;46.70;26.20;;;230.40;2252.80;;;;;;4944168;29;20464;-83
2022/12/28 10:00:42;;;;;;;78.97;40.97;;;205.70;2252.80;;;;;;4944210;29;20051;-84
2022/12/28 10:03:22;;;;;;;41.33;23.75;;;230.40;2252.80;;;;;;4943968;28;20122;-87
2022/12/28 10:05:50;;;;;;;29.15;16.17;;;230.40;2252.80;;;;;;4944580;29;20117;-87
2022/12/28 10:08:20;;;;;;;37.30;21.45;;;230.50;2252.80;;;;;;4944168;29;20035;-89
2022/12/28 10:10:46;;;;;;;14.27;9.15;;;230.50;2252.80;;;;;;4944367;29;20035;-83
2022/12/28 10:13:24;;;;;;;13.35;9.27;;;230.60;2252.80;;;;;;4944513;29;20031;-86
2022/12/28 10:15:51;;;;;;;25.23;16.70;;;230.60;2252.80;;;;;;4943873;29;20035;-85
2022/12/28 10:18:26;;;;;;;24.33;16.35;;;230.60;2252.80;;;;;;4941288;29;20039;-85
2022/12/28 10:20:53;;;;;;;31.15;19.75;;;230.60;2252.80;;;;;;4940688;29;20118;-83
2022/12/28 10:23:25;;;;;;;26.45;17.67;;;230.70;2252.80;;;;;;4940996;29;20058;-86
2022/12/28 10:25:53;;;;;;;33.85;21.77;;;230.70;2252.80;;;;;;4941371;29;20475;-84
2022/12/28 10:28:21;;;;;;;24.70;16.25;;;230.80;2252.80;;;;;;4941309;29;20067;-83
2022/12/28 10:31:05;;;;;;;22.55;12.98;;;230.80;2252.80;;;;;;4940294;29;20023;-82
2022/12/28 10:33:31;;;;;;;32.78;18.48;;;230.60;2252.80;;;;;;4958194;29;20083;-79
2022/12/28 10:35:58;;;;;;;52.70;31.65;;;230.70;2252.80;;;;;;4957848;29;20110;-85
2022/12/28 10:38:32;;;;;;;47.03;27.50;;;230.80;2252.80;;;;;;4940736;29;20039;-83
2022/12/28 10:41:08;;;;;;;52.38;34.88;;;230.90;2252.80;;;;;;4940734;29;20027;-81
2022/12/28 10:43:38;;;;;;;44.92;28.80;;;230.90;2252.80;;;;;;4940424;29;20031;-82
2022/12/28 10:46:06;;;;;;;31.55;20.33;;;;;;;;;;4957739;29;20035;-84
2022/12/28 10:48:33;;;;;;;32.25;19.67;;;;;;;;;;4930920;29;20031;-84
2022/12/28 10:51:01;;;;;;;36.65;19.83;;;;;;;;;;4939220;29;20027;-83
2022/12/28 10:53:56;;;;;;;58.78;37.78;;;;;;;;;;4940379;29;20024;-85
2022/12/28 10:56:26;;;;;;;44.97;30.20;;;;;;;;;;4940159;28;20130;-82
2022/12/28 10:59:13;;;;;;;53.35;33.88;;;231.00;2252.80;;;;;;4964897;28;20055;-79
2022/12/28 11:01:40;;;;;;;43.58;28.20;;;230.90;2252.80;;;;;;4938592;29;20056;-81
2022/12/28 11:04:21;;;;;;;34.47;25.48;;;230.90;2252.80;;;;;;4921120;29;20031;-80
2022/12/28 11:07:01;;;;;;;37.28;24.80;;;230.90;2252.80;;;;;;4921057;29;20122;-80
2022/12/28 11:09:32;;;;;;;42.35;26.83;;;230.90;2252.80;;;;;;4920905;29;20038;-84
2022/12/28 11:12:26;;;;;;;46.40;28.73;;;230.90;2252.80;;;;;;4920897;29;20126;-81
2022/12/28 11:14:53;;;;;;;55.20;33.20;;;230.90;2252.80;;;;;;4900921;29;20032;-80
2022/12/28 11:17:21;;;;;;;46.00;29.23;;;231.00;2252.80;;;;;;4901296;29;20036;-79
2022/12/28 11:19:50;;;;;;;45.15;30.33;;;230.90;2252.80;;;;;;4901655;29;20029;-78
2022/12/28 11:22:22;;;;;;;54.97;35.22;;;231.00;2252.80;;;;;;4923394;29;20560;-77
2022/12/28 11:24:47;;;;;;;49.08;31.88;;;231.00;2252.80;;;;;;4910267;29;20027;-78
2022/12/28 11:27:17;;;;;;;49.70;34.65;;;231.00;2252.80;;;;;;4911985;29;20464;-79
2022/12/28 11:29:46;;;;;;;45.72;30.60;;;231.00;2252.80;;;;;;4927430;29;20028;-78
2022/12/28 11:32:23;;;;;;;38.25;25.35;;;231.00;2252.80;;;;;;4926656;29;20027;-77
2022/12/28 11:34:50;;;;;;;37.70;23.48;;;230.90;2252.80;;;;;;4912591;29;20046;-79
2022/12/28 11:37:16;;;;;;;83.18;48.97;;;231.00;2252.80;;;;;;4917738;29;20083;-78
2022/12/28 11:39:45;;;;;;;40.10;27.42;;;231.10;2252.80;;;;;;4917673;29;20448;-80
2022/12/28 11:42:31;;;;;;;39.67;24.02;;;231.10;2252.80;;;;;;4901352;29;20031;-84
2022/12/28 11:45:17;;;;;;;31.48;21.35;;;231.20;2252.80;;;;;;4901717;29;20544;-84
2022/12/28 11:47:44;;;;;;;39.10;25.23;;;256.10;2252.80;;;;;;4900650;29;20099;-86
2022/12/28 11:50:37;;;;;;;65.97;38.28;;;256.80;2252.80;;;;;;4899924;29;20036;-86
2022/12/28 11:53:18;;;;;;;86.10;44.45;;;256.80;2252.80;;;;;;4900979;29;20036;-85
2022/12/28 11:56:14;;;;;;;129.13;74.35;;;281.70;2278.40;;;;;;4901338;29;20032;-83
2022/12/28 11:58:41;;;;;;;57.35;34.33;;;281.80;2278.40;;;;;;4886087;29;20131;-85
2022/12/28 12:01:32;;;;;;;50.88;34.75;;;281.70;2278.40;;;;;;4901253;29;20494;-83
2022/12/28 12:03:59;;;;;;;39.83;27.38;;;281.80;2278.40;;;;;;4901745;29;20058;-83
2022/12/28 12:06:43;;;;;;;32.15;23.20;;;282.20;2278.40;;;;;;4901425;29;20459;-80
2022/12/28 12:09:22;;;;;;;31.10;20.90;;;282.50;2278.40;;;;;;4901675;29;20040;-83
2022/12/28 12:12:12;;;;;;;26.63;17.17;;;307.30;2304.00;;;;;;4901278;29;20068;-87
2022/12/28 12:14:41;;;;;;;16.20;12.20;;;;;;;;;;4907776;29;20103;-85
2022/12/28 12:17:12;;;;;;;23.80;16.25;;;;;;;;;;4937071;29;20032;-83
2022/12/28 12:19:41;;;;;;;29.67;17.27;;;;;;;;;;4919023;29;20042;-82
2022/12/28 12:22:40;;;;;;;25.30;16.15;;;;;;;;;;4919153;29;20410;-82
2022/12/28 12:25:17;;;;;;;27.02;17.17;;;;;;;;;;4868906;29;20036;-83
2022/12/28 12:27:49;;;;;;;24.42;16.27;;;;;;;;;;4919911;29;20055;-83
2022/12/28 12:30:19;;;;;;;26.97;17.13;;;;;;;;;;4919850;29;20031;-83
2022/12/28 12:32:54;;;;;;;20.45;15.73;;;;;;;;;;4919975;29;20098;-84
2022/12/28 12:35:21;;;;;;;21.75;15.48;;;;;;;;;;4919810;29;20035;-81
2022/12/28 12:38:06;;;;;;;20.23;14.45;;;;;;;;;;4929379;29;20032;-83
2022/12/28 12:40:47;;;;;;;20.23;12.57;;;;;;;;;;4900108;29;20028;-83
2022/12/28 12:43:13;;;;;;;17.02;11.43;;;;;;;;;;4900439;29;20544;-82
2022/12/28 12:45:58;;;;;;;27.80;16.83;;;;;;;;;;4900842;29;20028;-83
2022/12/28 12:48:32;;;;;;;17.98;13.32;;;;;;;;;;4899839;29;20092;-83
2022/12/28 12:51:03;;;;;;;21.63;15.45;;;;;;;;;;4918150;29;20039;-85